Time;durP1;ratioP1;P1;durP2;ratioP2;P2;SDS_P1;SDS_P2;PMS_P1;PMS_P2;Temp;Humidity;BMP_temperature;BMP_pressure;BME280_temperature;BME280_humidity;BME280_pressure;Samples;Min_cycle;Max_cycle;Signal;HPM_P1;HPM_P2
2021/08/12 00:01:33;;;;;;;9.80;8.90;;;20.20;99.90;;;;;;5105720;28;20468;-63
2021/08/12 00:04:00;;;;;;;10.53;9.50;;;20.10;99.90;;;;;;5114751;28;20465;-63
2021/08/12 00:06:27;;;;;;;10.47;9.47;;;20.10;99.90;;;;;;5106220;27;20473;-64
2021/08/12 00:08:55;;;;;;;9.60;8.77;;;20.10;99.90;;;;;;5110378;27;20469;-63
2021/08/12 00:11:24;;;;;;;10.43;9.43;;;20.10;99.90;;;;;;5105566;27;20816;-64
2021/08/12 00:13:50;;;;;;;10.90;10.00;;;20.10;99.90;;;;;;5113484;28;21098;-63
2021/08/12 00:16:17;;;;;;;10.57;9.57;;;20.10;99.90;;;;;;5107942;28;20965;-64
2021/08/12 00:18:44;;;;;;;9.80;9.00;;;20.10;99.90;;;;;;5109689;28;20484;-64
2021/08/12 00:21:11;;;;;;;10.83;9.93;;;20.00;99.90;;;;;;5102161;28;20814;-62
2021/08/12 00:23:38;;;;;;;10.53;9.63;;;20.00;99.90;;;;;;5110927;28;20471;-62
2021/08/12 00:26:06;;;;;;;12.00;11.00;;;20.00;99.90;;;;;;5124214;27;20508;-62
2021/08/12 00:28:34;;;;;;;12.67;11.50;;;20.00;99.90;;;;;;5115668;27;20538;-63
2021/08/12 00:31:01;;;;;;;12.10;11.00;;;20.00;99.90;;;;;;5106897;28;20475;-62
2021/08/12 00:33:28;;;;;;;13.80;12.57;;;20.00;99.90;;;;;;5111096;28;20476;-62
2021/08/12 00:35:55;;;;;;;12.70;11.50;;;19.90;99.90;;;;;;5109572;28;20476;-62
2021/08/12 00:38:21;;;;;;;12.70;11.50;;;19.90;99.90;;;;;;5114440;28;20472;-63
2021/08/12 00:40:49;;;;;;;11.70;10.70;;;19.90;99.90;;;;;;5101123;28;21083;-63
2021/08/12 00:43:15;;;;;;;11.70;10.70;;;19.90;99.90;;;;;;5101474;27;20803;-62
2021/08/12 00:45:44;;;;;;;9.83;8.93;;;19.90;99.90;;;;;;5110953;28;20457;-62
2021/08/12 00:48:11;;;;;;;11.10;9.30;;;19.80;99.90;;;;;;5113985;28;20475;-63
2021/08/12 00:50:42;;;;;;;9.77;8.77;;;19.80;99.90;;;;;;5106695;27;20477;-63
2021/08/12 00:53:09;;;;;;;10.00;9.00;;;19.80;99.90;;;;;;5109189;27;20788;-63
2021/08/12 00:55:42;;;;;;;10.33;9.07;;;19.80;99.90;;;;;;5108655;28;20461;-63
2021/08/12 00:58:09;;;;;;;10.80;9.80;;;19.80;99.90;;;;;;5106180;27;20501;-64
2021/08/12 01:00:36;;;;;;;9.50;8.63;;;19.80;99.90;;;;;;5113965;28;20822;-63
2021/08/12 01:03:06;;;;;;;10.97;9.77;;;19.80;99.90;;;;;;5108652;28;20473;-65
2021/08/12 01:05:34;;;;;;;10.80;9.90;;;19.80;99.90;;;;;;5106584;28;20469;-63
2021/08/12 01:08:12;;;;;;;9.83;9.00;;;19.80;99.90;;;;;;5110993;28;20525;-63
2021/08/12 01:10:47;;;;;;;9.23;8.37;;;19.80;99.90;;;;;;5107891;28;20476;-63
2021/08/12 01:13:20;;;;;;;8.70;8.10;;;19.70;99.90;;;;;;5107783;28;20488;-63
2021/08/12 01:15:52;;;;;;;11.53;9.07;;;19.70;99.90;;;;;;5107334;27;20994;-63
2021/08/12 01:18:31;;;;;;;9.60;8.90;;;19.70;99.90;;;;;;5109327;28;20465;-63
2021/08/12 01:21:20;;;;;;;10.97;10.07;;;19.70;99.90;;;;;;5111599;27;20779;-64
2021/08/12 01:23:47;;;;;;;9.73;8.90;;;19.70;99.90;;;;;;5105687;27;20476;-63
2021/08/12 01:26:18;;;;;;;9.30;8.37;;;19.70;99.90;;;;;;5109062;28;20478;-63
2021/08/12 01:28:47;;;;;;;9.63;8.13;;;19.70;99.90;;;;;;5106605;27;20859;-63
2021/08/12 01:31:25;;;;;;;9.37;8.67;;;19.60;99.90;;;;;;5102866;28;20771;-63
2021/08/12 01:34:03;;;;;;;9.70;8.80;;;19.60;99.90;;;;;;5109884;28;20523;-63
2021/08/12 01:36:36;;;;;;;10.33;9.47;;;19.60;99.90;;;;;;5102055;28;20542;-63
2021/08/12 01:39:08;;;;;;;11.47;10.47;;;19.60;99.90;;;;;;5108832;28;20474;-63
2021/08/12 01:41:37;;;;;;;11.80;10.60;;;19.50;99.90;;;;;;5113818;28;20457;-63
2021/08/12 01:44:05;;;;;;;11.70;10.70;;;19.50;99.90;;;;;;5093442;28;20466;-63
2021/08/12 01:46:34;;;;;;;11.53;10.37;;;19.50;99.90;;;;;;5106786;28;20479;-63
2021/08/12 01:49:04;;;;;;;13.13;10.80;;;19.50;99.90;;;;;;5100281;27;20473;-63
2021/08/12 01:51:34;;;;;;;11.50;10.50;;;19.40;99.90;;;;;;5099824;28;20947;-63
2021/08/12 01:54:02;;;;;;;11.93;10.93;;;19.40;99.90;;;;;;5104472;28;20469;-63
2021/08/12 01:56:30;;;;;;;10.20;9.40;;;19.40;99.90;;;;;;5112738;27;20464;-63
2021/08/12 01:59:01;;;;;;;12.27;11.00;;;19.40;99.90;;;;;;5112821;28;20476;-64
2021/08/12 02:01:29;;;;;;;11.43;10.30;;;19.40;99.90;;;;;;5112427;28;20969;-64
2021/08/12 02:03:57;;;;;;;11.30;10.30;;;19.40;99.90;;;;;;5100819;28;20958;-63
2021/08/12 02:06:25;;;;;;;61.53;53.77;;;19.40;99.90;;;;;;5108559;27;20464;-63
2021/08/12 02:08:53;;;;;;;32.23;28.43;;;19.40;99.90;;;;;;5110855;27;20473;-63
2021/08/12 02:11:20;;;;;;;14.87;13.07;;;19.40;99.90;;;;;;5101661;28;20465;-63
2021/08/12 02:13:47;;;;;;;10.67;9.63;;;19.40;99.90;;;;;;5104271;28;20476;-63
2021/08/12 02:16:14;;;;;;;10.13;9.23;;;19.40;99.90;;;;;;5100848;28;20464;-63
2021/08/12 02:18:42;;;;;;;12.77;9.40;;;19.30;99.90;;;;;;5098662;28;20480;-63
2021/08/12 02:21:12;;;;;;;10.87;9.57;;;19.40;99.90;;;;;;5101594;28;20453;-63
2021/08/12 02:23:43;;;;;;;11.13;9.13;;;19.30;99.90;;;;;;5105801;28;20839;-63
2021/08/12 02:26:15;;;;;;;9.63;8.83;;;19.30;99.90;;;;;;5103063;28;20815;-63
2021/08/12 02:28:44;;;;;;;11.40;10.30;;;19.30;99.90;;;;;;5098357;28;20468;-63
2021/08/12 02:31:15;;;;;;;10.10;9.40;;;19.30;99.90;;;;;;5099600;28;20457;-63
2021/08/12 02:33:44;;;;;;;12.10;11.10;;;19.30;99.90;;;;;;5106256;28;20476;-63
2021/08/12 02:36:11;;;;;;;11.73;10.13;;;19.20;99.90;;;;;;5106158;28;20462;-63
2021/08/12 02:38:43;;;;;;;9.13;8.30;;;19.20;99.90;;;;;;5099525;28;20484;-63
2021/08/12 02:41:15;;;;;;;12.00;10.67;;;19.20;99.90;;;;;;5100677;28;20465;-63
2021/08/12 02:43:44;;;;;;;13.47;12.27;;;19.20;99.90;;;;;;5105638;28;20479;-63
2021/08/12 02:46:12;;;;;;;11.27;10.30;;;19.20;99.90;;;;;;5113910;28;20467;-63
2021/08/12 02:48:41;;;;;;;9.97;9.17;;;19.20;99.90;;;;;;5106192;28;20819;-63
2021/08/12 02:51:09;;;;;;;11.40;10.30;;;19.20;99.90;;;;;;5116772;27;20483;-63
2021/08/12 02:53:38;;;;;;;11.20;10.17;;;19.20;99.90;;;;;;5103129;28;20464;-63
2021/08/12 02:56:10;;;;;;;12.60;11.37;;;19.20;99.90;;;;;;5114370;28;20460;-63
2021/08/12 02:58:42;;;;;;;10.10;9.30;;;19.20;99.90;;;;;;5111428;28;20967;-63
2021/08/12 03:01:13;;;;;;;10.07;9.10;;;19.10;99.90;;;;;;5109104;28;20468;-63
2021/08/12 03:03:43;;;;;;;10.70;9.67;;;19.20;99.90;;;;;;5103531;28;20999;-63
2021/08/12 03:06:15;;;;;;;11.00;10.10;;;19.10;99.90;;;;;;5116052;27;20966;-63
2021/08/12 03:08:45;;;;;;;13.20;11.93;;;19.10;99.90;;;;;;5116733;27;20486;-63
2021/08/12 03:11:15;;;;;;;10.63;9.73;;;19.10;99.90;;;;;;5107631;28;20461;-63
2021/08/12 03:13:44;;;;;;;11.90;10.80;;;19.10;99.90;;;;;;5109646;27;20470;-63
2021/08/12 03:16:11;;;;;;;10.90;10.00;;;19.10;99.90;;;;;;5105289;28;20510;-64
2021/08/12 03:18:38;;;;;;;11.23;10.23;;;19.10;99.90;;;;;;5102703;28;20489;-63
2021/08/12 03:21:10;;;;;;;11.17;10.20;;;19.10;99.90;;;;;;5106515;28;20959;-64
2021/08/12 03:23:37;;;;;;;10.90;10.07;;;19.10;99.90;;;;;;5109839;28;20966;-63
2021/08/12 03:26:05;;;;;;;11.77;10.67;;;19.10;99.90;;;;;;5106154;27;20806;-63
2021/08/12 03:28:32;;;;;;;11.20;10.13;;;19.10;99.90;;;;;;5102489;28;20467;-64
2021/08/12 03:31:04;;;;;;;13.33;11.20;;;19.10;99.90;;;;;;5104986;28;20461;-64
2021/08/12 03:33:31;;;;;;;12.00;10.80;;;19.00;99.90;;;;;;5109448;28;20970;-63
2021/08/12 03:35:58;;;;;;;12.13;10.87;;;19.00;99.90;;;;;;5107388;28;20464;-64
2021/08/12 03:38:27;;;;;;;12.07;10.97;;;19.00;99.90;;;;;;5102389;28;20476;-64
2021/08/12 03:40:54;;;;;;;10.90;10.00;;;19.00;99.90;;;;;;5103508;28;20535;-60
2021/08/12 03:43:21;;;;;;;10.57;9.57;;;19.00;99.90;;;;;;5114374;27;20475;-62
2021/08/12 03:45:48;;;;;;;9.77;8.97;;;19.00;99.90;;;;;;5115947;27;20468;-63
2021/08/12 03:48:16;;;;;;;10.10;9.20;;;19.00;99.90;;;;;;5101295;27;20487;-62
2021/08/12 03:50:43;;;;;;;12.10;11.07;;;19.00;99.90;;;;;;5116000;28;20812;-64
2021/08/12 03:53:10;;;;;;;10.37;9.47;;;19.00;99.90;;;;;;5101923;28;20482;-63
2021/08/12 03:55:37;;;;;;;11.87;10.70;;;19.00;99.90;;;;;;5113932;28;20463;-63
2021/08/12 03:58:04;;;;;;;11.00;10.03;;;19.00;99.90;;;;;;5114423;28;20472;-64
2021/08/12 04:00:31;;;;;;;12.23;10.90;;;19.00;99.90;;;;;;5103935;27;20460;-64
2021/08/12 04:02:58;;;;;;;12.13;11.13;;;18.90;99.90;;;;;;5114841;27;20900;-64
2021/08/12 04:05:26;;;;;;;11.70;10.70;;;18.90;99.90;;;;;;5114924;27;20464;-64
2021/08/12 04:07:53;;;;;;;11.70;10.63;;;19.00;99.90;;;;;;5115623;27;20464;-63
2021/08/12 04:10:20;;;;;;;11.10;10.30;;;19.00;99.90;;;;;;5115532;27;20765;-64
2021/08/12 04:12:47;;;;;;;11.70;10.40;;;18.90;99.90;;;;;;5115681;27;20479;-64
2021/08/12 04:15:14;;;;;;;13.40;12.20;;;18.90;99.90;;;;;;5115137;27;20464;-64
2021/08/12 04:17:41;;;;;;;10.80;10.00;;;18.90;99.90;;;;;;5115440;27;20459;-63
2021/08/12 04:20:09;;;;;;;11.03;9.83;;;18.90;99.90;;;;;;5115205;27;20962;-64
2021/08/12 04:22:37;;;;;;;11.87;10.67;;;18.90;99.90;;;;;;5115430;27;20453;-64
2021/08/12 04:25:05;;;;;;;10.23;9.40;;;18.90;99.90;;;;;;5114949;27;20471;-64
2021/08/12 04:27:32;;;;;;;11.33;10.27;;;19.00;99.90;;;;;;5115517;27;20456;-64
2021/08/12 04:29:59;;;;;;;11.77;10.67;;;19.00;99.90;;;;;;5114733;27;20959;-63
2021/08/12 04:32:25;;;;;;;10.80;9.90;;;19.00;99.90;;;;;;5115144;27;20464;-63
2021/08/12 04:34:52;;;;;;;10.90;10.03;;;19.00;99.90;;;;;;5115318;27;20460;-63
2021/08/12 04:37:19;;;;;;;10.30;9.50;;;19.00;99.90;;;;;;5114766;27;20880;-63
2021/08/12 04:39:48;;;;;;;10.30;9.50;;;19.00;99.90;;;;;;5114962;27;20468;-64
2021/08/12 04:42:15;;;;;;;9.57;8.77;;;19.00;99.90;;;;;;5114687;27;20469;-63
2021/08/12 04:44:41;;;;;;;10.20;9.20;;;19.10;99.90;;;;;;5114947;27;20460;-63
2021/08/12 04:47:11;;;;;;;12.47;11.23;;;19.10;99.90;;;;;;5114511;27;20958;-63
2021/08/12 04:49:38;;;;;;;10.73;9.93;;;19.10;99.90;;;;;;5114788;27;20465;-63
2021/08/12 04:52:06;;;;;;;10.03;9.23;;;19.10;99.90;;;;;;5114377;27;20468;-62
2021/08/12 04:54:33;;;;;;;11.17;10.07;;;19.20;99.90;;;;;;5114804;27;20532;-63
2021/08/12 04:57:01;;;;;;;11.37;10.37;;;19.20;99.90;;;;;;5114548;27;20465;-62
2021/08/12 04:59:28;;;;;;;12.13;11.03;;;19.20;99.90;;;;;;5114573;27;20470;-63
2021/08/12 05:01:55;;;;;;;11.17;10.27;;;19.20;99.90;;;;;;5114713;27;20460;-63
2021/08/12 05:04:22;;;;;;;11.47;10.47;;;19.30;99.90;;;;;;5113652;27;21058;-63
2021/08/12 05:06:49;;;;;;;11.07;10.07;;;19.30;99.90;;;;;;5114548;27;20472;-63
2021/08/12 05:09:16;;;;;;;11.20;10.20;;;19.30;99.90;;;;;;5114087;27;20468;-63
2021/08/12 05:11:43;;;;;;;11.10;10.20;;;19.30;99.90;;;;;;5114441;27;20981;-63
2021/08/12 05:14:11;;;;;;;10.47;9.63;;;19.40;99.90;;;;;;5113775;27;20466;-62
2021/08/12 05:16:38;;;;;;;11.57;10.43;;;19.40;99.90;;;;;;5114486;27;20464;-62
2021/08/12 05:19:05;;;;;;;10.93;10.00;;;19.40;99.90;;;;;;5113818;27;20464;-62
2021/08/12 05:21:32;;;;;;;10.57;9.53;;;19.40;99.90;;;;;;5114287;27;20461;-62
2021/08/12 05:23:59;;;;;;;10.40;9.50;;;19.50;99.90;;;;;;5114395;27;20779;-63
2021/08/12 05:26:26;;;;;;;11.53;10.43;;;19.50;99.90;;;;;;5113664;27;20452;-62
2021/08/12 05:28:53;;;;;;;10.33;9.40;;;19.60;99.90;;;;;;5113887;27;20468;-63
2021/08/12 05:31:22;;;;;;;11.53;10.63;;;19.60;99.90;;;;;;5113742;27;20475;-63
2021/08/12 05:33:49;;;;;;;11.40;10.47;;;19.60;99.90;;;;;;5114151;27;20569;-63
2021/08/12 05:36:16;;;;;;;12.07;11.07;;;19.60;99.90;;;;;;5113493;27;20456;-62
2021/08/12 05:38:43;;;;;;;10.17;9.37;;;19.70;99.90;;;;;;5113893;27;20468;-62
2021/08/12 05:41:10;;;;;;;10.47;9.57;;;19.70;99.90;;;;;;5113533;27;20515;-62
2021/08/12 05:43:37;;;;;;;10.03;9.23;;;19.80;99.90;;;;;;5113785;27;20461;-63
2021/08/12 05:46:04;;;;;;;12.07;11.00;;;19.80;99.90;;;;;;5113384;27;20464;-63
2021/08/12 05:48:32;;;;;;;11.70;10.60;;;19.80;99.90;;;;;;5113305;27;20456;-62
2021/08/12 05:50:59;;;;;;;12.43;11.37;;;19.90;99.90;;;;;;5113832;27;20826;-63
2021/08/12 05:53:30;;;;;;;12.97;11.87;;;19.90;99.90;;;;;;5113373;27;20468;-62
2021/08/12 05:55:57;;;;;;;12.77;11.57;;;20.00;99.90;;;;;;5113616;27;20496;-63
2021/08/12 05:58:24;;;;;;;10.67;9.83;;;20.00;99.90;;;;;;5113061;27;20531;-63
2021/08/12 06:00:51;;;;;;;12.07;11.07;;;20.00;99.90;;;;;;5113577;27;20465;-63
2021/08/12 06:03:18;;;;;;;10.37;9.43;;;20.10;99.90;;;;;;5113095;27;20468;-63
2021/08/12 06:05:46;;;;;;;12.77;11.67;;;20.10;99.90;;;;;;5113534;27;20464;-63
2021/08/12 06:08:14;;;;;;;10.97;10.07;;;20.20;99.90;;;;;;5112875;27;20849;-63
2021/08/12 06:10:42;;;;;;;11.10;10.20;;;20.30;99.90;;;;;;5113300;27;20475;-63
2021/08/12 06:13:09;;;;;;;13.03;11.90;;;20.30;99.90;;;;;;5112858;27;20465;-63
2021/08/12 06:15:36;;;;;;;11.63;10.67;;;20.40;99.90;;;;;;5112506;27;20460;-64
2021/08/12 06:18:06;;;;;;;11.83;10.90;;;20.40;99.90;;;;;;5113229;27;20549;-63
2021/08/12 06:20:33;;;;;;;11.20;10.30;;;20.50;99.90;;;;;;5113232;27;20798;-63
2021/08/12 06:23:05;;;;;;;12.00;11.00;;;20.50;99.90;;;;;;5113337;27;20471;-63
2021/08/12 06:25:32;;;;;;;10.50;9.60;;;20.60;99.90;;;;;;5112886;27;20468;-63
2021/08/12 06:27:59;;;;;;;10.40;9.50;;;20.60;99.90;;;;;;5112996;27;20472;-63
2021/08/12 06:30:26;;;;;;;11.63;10.43;;;20.70;99.90;;;;;;5112790;27;20468;-63
2021/08/12 06:32:53;;;;;;;13.40;12.30;;;20.70;99.90;;;;;;5113135;27;20457;-63
2021/08/12 06:35:20;;;;;;;14.60;13.10;;;20.80;99.90;;;;;;5112849;27;20461;-63
2021/08/12 06:37:49;;;;;;;14.33;12.93;;;20.80;99.90;;;;;;5112551;27;20556;-63
2021/08/12 06:40:19;;;;;;;13.00;11.73;;;20.80;99.90;;;;;;5112667;27;20468;-62
2021/08/12 06:42:46;;;;;;;12.73;11.53;;;20.90;99.90;;;;;;5113116;27;20463;-63
2021/08/12 06:45:15;;;;;;;12.53;11.27;;;21.00;99.90;;;;;;5112737;27;20811;-64
2021/08/12 06:47:42;;;;;;;11.53;10.53;;;21.10;99.90;;;;;;5112819;27;20463;-63
2021/08/12 06:50:10;;;;;;;12.00;10.80;;;21.10;99.90;;;;;;5112914;27;20815;-63
2021/08/12 06:52:37;;;;;;;12.27;11.17;;;21.20;99.90;;;;;;5112555;27;20448;-63
2021/08/12 06:55:04;;;;;;;12.70;11.07;;;21.30;99.90;;;;;;5112724;27;20456;-63
2021/08/12 06:57:33;;;;;;;12.13;10.97;;;21.40;99.90;;;;;;5112196;27;20464;-63
2021/08/12 07:00:00;;;;;;;11.03;9.90;;;21.40;99.90;;;;;;5112732;27;20469;-63
2021/08/12 07:02:27;;;;;;;11.50;10.30;;;21.50;99.90;;;;;;5112431;27;20471;-64
2021/08/12 07:04:54;;;;;;;11.73;10.50;;;21.60;99.90;;;;;;5112882;27;20464;-64
2021/08/12 07:07:21;;;;;;;11.47;10.43;;;21.60;99.90;;;;;;5112341;27;20480;-63
2021/08/12 07:09:48;;;;;;;11.67;10.47;;;21.70;99.90;;;;;;5112753;27;20464;-63
2021/08/12 07:12:15;;;;;;;11.13;10.13;;;21.70;99.90;;;;;;5112396;27;20464;-63
2021/08/12 07:14:43;;;;;;;14.10;12.70;;;21.80;99.90;;;;;;5112673;27;20467;-63
2021/08/12 07:17:10;;;;;;;14.43;13.03;;;21.90;99.90;;;;;;5112793;27;20480;-64
2021/08/12 07:19:37;;;;;;;13.17;11.97;;;22.00;99.90;;;;;;5112351;27;20933;-64
2021/08/12 07:22:05;;;;;;;16.00;14.50;;;22.10;99.90;;;;;;5112620;27;20508;-63
2021/08/12 07:24:32;;;;;;;13.50;12.27;;;22.20;99.90;;;;;;5112292;27;20818;-64
2021/08/12 07:26:59;;;;;;;13.60;12.43;;;22.40;99.90;;;;;;5114930;27;20467;-63
2021/08/12 07:29:26;;;;;;;14.20;12.80;;;22.50;99.90;;;;;;5115875;27;20460;-63
2021/08/12 07:31:55;;;;;;;12.03;10.93;;;22.60;99.90;;;;;;5116415;27;20472;-64
2021/08/12 07:34:22;;;;;;;10.97;9.90;;;22.70;99.90;;;;;;5116061;27;20464;-63
2021/08/12 07:36:48;;;;;;;9.27;8.47;;;22.80;99.90;;;;;;5116481;27;20464;-63
2021/08/12 07:39:16;;;;;;;10.57;9.60;;;22.90;99.90;;;;;;5116154;27;20487;-63
2021/08/12 07:41:44;;;;;;;8.67;7.87;;;23.00;99.90;;;;;;5116264;27;20456;-64
2021/08/12 07:44:13;;;;;;;8.20;7.30;;;23.10;99.90;;;;;;5115872;27;20460;-63
2021/08/12 07:46:41;;;;;;;10.23;9.20;;;23.20;99.90;;;;;;5115510;27;20464;-64
2021/08/12 07:49:09;;;;;;;7.77;6.97;;;23.30;99.90;;;;;;5115777;27;20468;-64
2021/08/12 07:51:36;;;;;;;8.73;7.77;;;23.30;99.90;;;;;;5115656;27;21020;-63
2021/08/12 07:54:03;;;;;;;8.37;7.60;;;23.40;99.90;;;;;;5115785;27;20611;-63
2021/08/12 07:56:30;;;;;;;7.10;6.50;;;23.40;99.90;;;;;;5115596;27;20970;-63
2021/08/12 07:58:57;;;;;;;10.07;8.57;;;23.50;99.90;;;;;;5115701;27;20481;-63
2021/08/12 08:01:24;;;;;;;9.00;8.30;;;23.50;99.90;;;;;;5115533;27;20463;-63
2021/08/12 08:03:52;;;;;;;7.50;6.93;;;23.60;99.50;;;;;;5115899;27;20456;-63
2021/08/12 08:06:21;;;;;;;7.93;6.80;;;23.70;99.40;;;;;;5115417;27;20467;-63
2021/08/12 08:08:48;;;;;;;6.97;6.37;;;23.70;99.20;;;;;;5115633;27;20461;-64
2021/08/12 08:11:17;;;;;;;6.10;5.70;;;23.80;99.00;;;;;;5115498;27;20464;-64
2021/08/12 08:13:44;;;;;;;6.70;4.97;;;23.90;98.30;;;;;;5115376;27;20469;-63
2021/08/12 08:16:15;;;;;;;6.47;5.97;;;23.90;97.70;;;;;;5115721;27;20475;-64
2021/08/12 08:18:42;;;;;;;5.73;5.30;;;23.90;98.00;;;;;;5115125;27;20979;-63
2021/08/12 08:21:09;;;;;;;5.83;5.40;;;24.00;97.80;;;;;;5115419;27;20460;-62
2021/08/12 08:23:38;;;;;;;7.47;4.63;;;24.10;97.70;;;;;;5115046;27;20460;-64
2021/08/12 08:26:04;;;;;;;4.93;4.53;;;24.10;97.50;;;;;;5115498;27;20808;-62
2021/08/12 08:28:31;;;;;;;4.70;4.40;;;24.20;97.20;;;;;;5114459;27;20468;-64
2021/08/12 08:30:58;;;;;;;4.30;3.90;;;24.20;96.40;;;;;;5115364;27;20464;-63
2021/08/12 08:33:25;;;;;;;4.83;4.53;;;24.20;94.30;;;;;;5114821;27;20473;-63
2021/08/12 08:35:52;;;;;;;5.33;4.93;;;24.30;94.70;;;;;;5115239;27;20807;-63
2021/08/12 08:38:19;;;;;;;6.10;5.50;;;24.40;95.20;;;;;;5114142;27;20475;-63
2021/08/12 08:40:48;;;;;;;4.33;4.03;;;24.50;95.10;;;;;;5114861;27;20456;-63
2021/08/12 08:43:18;;;;;;;5.90;4.57;;;24.50;94.20;;;;;;5114803;27;21111;-63
2021/08/12 08:45:46;;;;;;;6.27;5.77;;;24.60;94.10;;;;;;5114652;27;20461;-63
2021/08/12 08:48:16;;;;;;;5.70;5.20;;;24.60;94.40;;;;;;5114620;27;20476;-63
2021/08/12 08:50:45;;;;;;;6.00;5.50;;;24.70;94.70;;;;;;5114512;27;20468;-64
2021/08/12 08:53:16;;;;;;;5.50;5.00;;;24.70;94.80;;;;;;5114901;27;20456;-64
2021/08/12 08:55:44;;;;;;;4.13;3.90;;;24.80;94.50;;;;;;5114461;27;20824;-64
2021/08/12 08:58:13;;;;;;;4.50;4.20;;;24.80;94.00;;;;;;5114431;27;20464;-63
2021/08/12 09:00:40;;;;;;;6.00;5.50;;;24.80;92.70;;;;;;5114326;27;20460;-63
2021/08/12 09:03:07;;;;;;;4.97;4.57;;;24.80;93.20;;;;;;5114855;27;20826;-63
2021/08/12 09:05:36;;;;;;;4.90;4.50;;;24.80;92.90;;;;;;5114107;27;20460;-64
2021/08/12 09:08:04;;;;;;;5.17;4.73;;;24.90;92.60;;;;;;5114529;27;20981;-62
2021/08/12 09:10:31;;;;;;;10.90;10.00;;;24.90;92.20;;;;;;5113964;27;20533;-63
2021/08/12 09:12:58;;;;;;;11.53;10.53;;;24.90;94.30;;;;;;5114433;27;20468;-63
2021/08/12 09:15:38;;;;;;;10.70;9.90;;;24.80;94.70;;;;;;5114071;27;20453;-63
2021/08/12 09:18:19;;;;;;;9.23;8.43;;;24.80;94.80;;;;;;5114254;27;20480;-63
2021/08/12 09:20:48;;;;;;;9.93;9.13;;;24.80;94.30;;;;;;5122819;27;20482;-65
2021/08/12 09:23:15;;;;;;;8.17;7.47;;;24.70;94.40;;;;;;5118274;27;20475;-65
2021/08/12 09:25:45;;;;;;;7.63;6.97;;;24.50;94.20;;;;;;5133413;27;20463;-66
2021/08/12 09:28:17;;;;;;;6.30;5.70;;;24.50;94.00;;;;;;5134589;27;20543;-63
2021/08/12 09:31:03;;;;;;;5.30;3.63;;;24.60;93.30;;;;;;5134014;27;20467;-64
2021/08/12 09:33:32;;;;;;;5.07;4.67;;;24.60;91.20;;;;;;5125394;27;20475;-66
2021/08/12 09:35:59;;;;;;;5.10;4.07;;;24.80;91.80;;;;;;5117557;27;20965;-64
2021/08/12 09:38:27;;;;;;;4.63;4.33;;;24.80;91.00;;;;;;5133923;27;20464;-64
2021/08/12 09:40:55;;;;;;;7.17;6.53;;;24.90;91.20;;;;;;5134257;27;20456;-64
2021/08/12 09:43:28;;;;;;;11.10;10.10;;;24.90;92.10;;;;;;5134173;27;20460;-64
2021/08/12 09:45:56;;;;;;;18.00;16.30;;;24.90;92.40;;;;;;5134085;27;20467;-64
2021/08/12 09:48:23;;;;;;;15.50;14.10;;;24.90;92.40;;;;;;5133911;27;20475;-65
2021/08/12 09:51:01;;;;;;;7.50;6.90;;;24.90;92.60;;;;;;5133508;27;20792;-64
2021/08/12 09:53:28;;;;;;;9.50;8.80;;;25.00;90.30;;;;;;5127162;27;20471;-65
2021/08/12 09:55:56;;;;;;;4.47;4.10;;;24.90;90.60;;;;;;5113211;27;20457;-64
2021/08/12 09:58:23;;;;;;;13.00;11.70;;;25.00;89.10;;;;;;5113184;27;21019;-64
2021/08/12 10:00:51;;;;;;;13.13;12.13;;;25.00;90.50;;;;;;5112963;27;20841;-64
2021/08/12 10:03:26;;;;;;;25.80;23.50;;;25.00;90.70;;;;;;5113318;27;20460;-64
2021/08/12 10:05:54;;;;;;;21.20;19.17;;;24.90;91.00;;;;;;5113009;27;20464;-64
2021/08/12 10:08:30;;;;;;;12.80;11.80;;;24.90;91.00;;;;;;5112719;27;20562;-65
2021/08/12 10:10:59;;;;;;;7.10;6.50;;;25.00;90.90;;;;;;5113226;27;21262;-63
2021/08/12 10:13:25;;;;;;;7.67;7.03;;;25.00;90.70;;;;;;5113292;27;20460;-64
2021/08/12 10:15:53;;;;;;;10.23;9.37;;;25.10;90.10;;;;;;5112642;27;20624;-62
2021/08/12 10:18:21;;;;;;;8.50;7.70;;;25.20;89.90;;;;;;5113118;27;20942;-64
2021/08/12 10:20:49;;;;;;;5.67;5.27;;;25.20;88.90;;;;;;5105798;27;20464;-64
2021/08/12 10:23:19;;;;;;;8.20;7.40;;;25.30;88.80;;;;;;5099075;28;20468;-64
2021/08/12 10:25:52;;;;;;;7.80;7.27;;;25.40;88.20;;;;;;5103818;28;20469;-63
2021/08/12 10:28:21;;;;;;;11.73;10.50;;;25.40;89.20;;;;;;5112742;27;20482;-64
2021/08/12 10:30:49;;;;;;;9.67;8.87;;;25.50;89.60;;;;;;5112503;28;20460;-64
2021/08/12 10:33:16;;;;;;;9.57;8.73;;;25.50;89.20;;;;;;5099210;28;21114;-65
2021/08/12 10:35:43;;;;;;;9.47;8.60;;;25.60;89.50;;;;;;5099011;28;20473;-65
2021/08/12 10:38:12;;;;;;;19.23;17.60;;;25.60;88.10;;;;;;5112520;27;20845;-65
2021/08/12 10:40:42;;;;;;;11.83;10.87;;;25.60;89.70;;;;;;5112602;27;20480;-64
2021/08/12 10:43:12;;;;;;;7.17;4.10;;;25.50;88.90;;;;;;5099582;28;20472;-64
2021/08/12 10:45:39;;;;;;;4.27;3.87;;;25.60;81.90;;;;;;5111155;28;20469;-63
2021/08/12 10:48:18;;;;;;;7.10;6.60;;;25.70;79.40;;;;;;5100246;28;20950;-64
2021/08/12 10:50:45;;;;;;;28.07;25.57;;;25.80;81.90;;;;;;5098831;28;20464;-63
2021/08/12 10:53:16;;;;;;;42.53;38.63;;;25.70;85.50;;;;;;5102926;28;20465;-64
2021/08/12 10:56:08;;;;;;;21.57;19.67;;;25.60;85.90;;;;;;5113293;27;20475;-64
2021/08/12 10:58:40;;;;;;;8.43;7.73;;;25.60;84.20;;;;;;5112244;27;20464;-64
2021/08/12 11:01:09;;;;;;;13.50;12.40;;;25.70;83.70;;;;;;5105121;28;21556;-64
2021/08/12 11:03:45;;;;;;;14.90;13.70;;;25.80;83.70;;;;;;5110146;28;20480;-64
2021/08/12 11:06:14;;;;;;;11.47;10.47;;;25.80;83.60;;;;;;5105677;27;20516;-64
2021/08/12 11:09:04;;;;;;;10.83;9.93;;;25.90;84.20;;;;;;5102671;28;20464;-64
2021/08/12 11:11:56;;;;;;;10.73;9.90;;;26.00;84.50;;;;;;5103213;28;20602;-64
2021/08/12 11:14:51;;;;;;;11.90;10.93;;;26.00;83.20;;;;;;5106279;28;20864;-65
2021/08/12 11:17:19;;;;;;;5.97;5.47;;;26.00;81.30;;;;;;5103413;28;20467;-64
2021/08/12 11:19:46;;;;;;;4.37;4.07;;;26.00;78.90;;;;;;5110076;28;20947;-64
2021/08/12 11:22:35;;;;;;;6.00;5.50;;;26.00;76.80;;;;;;5112991;28;20482;-64
2021/08/12 11:25:06;;;;;;;6.47;5.97;;;26.10;78.60;;;;;;5102985;28;20569;-64
2021/08/12 11:27:50;;;;;;;7.60;7.00;;;26.10;78.80;;;;;;5115994;28;20455;-64
2021/08/12 11:30:51;;;;;;;6.07;5.67;;;26.20;79.70;;;;;;5115645;27;20469;-63
2021/08/12 11:33:29;;;;;;;5.40;5.00;;;26.20;78.90;;;;;;5101986;28;20469;-63
2021/08/12 11:36:18;;;;;;;5.97;5.43;;;26.20;79.00;;;;;;5106982;28;20859;-64
2021/08/12 11:38:50;;;;;;;4.10;3.80;;;26.20;78.40;;;;;;5109099;28;20848;-64
2021/08/12 11:41:20;;;;;;;3.33;3.10;;;26.20;75.40;;;;;;5109323;27;20467;-63
2021/08/12 11:43:48;;;;;;;3.30;3.10;;;26.20;74.30;;;;;;5102541;28;20471;-64
2021/08/12 11:46:16;;;;;;;3.77;3.43;;;26.20;72.30;;;;;;5115609;27;20464;-64
2021/08/12 11:48:44;;;;;;;4.00;3.70;;;26.30;73.80;;;;;;5102648;28;20464;-64
2021/08/12 11:51:11;;;;;;;4.07;3.77;;;26.30;75.70;;;;;;5102169;27;20469;-65
2021/08/12 11:53:40;;;;;;;3.97;2.83;;;26.30;75.40;;;;;;5107320;28;20461;-65
2021/08/12 11:56:16;;;;;;;4.90;4.40;;;26.30;71.90;;;;;;5109270;27;20465;-64
2021/08/12 11:58:49;;;;;;;4.30;3.97;;;26.30;73.20;;;;;;5095409;28;20847;-65
2021/08/12 12:01:18;;;;;;;2.53;2.30;;;26.40;72.80;;;;;;5115787;28;20513;-65
2021/08/12 12:03:47;;;;;;;3.73;3.53;;;26.40;70.60;;;;;;5101383;28;20474;-64
2021/08/12 12:06:33;;;;;;;4.00;3.60;;;26.40;71.80;;;;;;5106814;28;20465;-64
2021/08/12 12:09:21;;;;;;;3.90;3.17;;;26.40;71.90;;;;;;5108836;28;20469;-65
2021/08/12 12:11:50;;;;;;;4.93;2.40;;;26.40;67.90;;;;;;5108594;28;20545;-65
2021/08/12 12:14:21;;;;;;;4.57;3.53;;;26.50;67.10;;;;;;5103199;28;20464;-64
2021/08/12 12:17:12;;;;;;;3.10;2.90;;;26.50;66.10;;;;;;5101456;28;20469;-65
2021/08/12 12:20:02;;;;;;;3.60;3.30;;;26.60;66.30;;;;;;5107948;28;20461;-64
2021/08/12 12:22:30;;;;;;;9.40;8.50;;;26.60;69.10;;;;;;5114484;27;20457;-64
2021/08/12 12:24:58;;;;;;;6.07;5.67;;;26.40;70.90;;;;;;5112544;28;20911;-64
2021/08/12 12:27:27;;;;;;;6.80;6.20;;;26.30;70.50;;;;;;5104665;28;20468;-65
2021/08/12 12:29:54;;;;;;;13.90;12.60;;;26.30;69.50;;;;;;5114746;28;20549;-64
2021/08/12 12:32:21;;;;;;;15.23;14.07;;;26.20;71.60;;;;;;5104835;28;20465;-63
2021/08/12 12:34:52;;;;;;;10.13;9.33;;;26.00;72.20;;;;;;5108083;28;20469;-63
2021/08/12 12:37:21;;;;;;;7.03;6.47;;;25.80;72.20;;;;;;5105604;28;20465;-63
2021/08/12 12:39:48;;;;;;;6.50;6.00;;;25.80;71.30;;;;;;5100899;27;20839;-63
2021/08/12 12:42:15;;;;;;;4.67;3.20;;;25.80;71.30;;;;;;5103647;28;20481;-63
2021/08/12 12:44:58;;;;;;;3.50;3.20;;;25.80;70.10;;;;;;5107888;28;20469;-64
2021/08/12 12:47:27;;;;;;;3.03;2.80;;;25.90;70.50;;;;;;5108049;28;20465;-65